createdAt,value
2024-04-24T00:01:18.184Z,2.59
2024-04-24T00:06:23.140Z,2.62
2024-04-24T00:11:27.310Z,2.68
2024-04-24T00:16:30.103Z,2.71
2024-04-24T00:21:32.897Z,2.70
2024-04-24T00:26:35.571Z,2.67
2024-04-24T00:31:38.257Z,2.63
2024-04-24T00:36:40.894Z,2.59
2024-04-24T00:41:43.536Z,2.55
2024-04-24T00:46:47.564Z,2.51
2024-04-24T00:51:50.329Z,2.46
2024-04-24T00:56:53.072Z,2.44
2024-04-24T01:01:56.360Z,2.45
2024-04-24T01:06:59.060Z,2.46
2024-04-24T01:12:01.773Z,2.46
2024-04-24T01:17:06.875Z,2.44
2024-04-24T01:22:15.539Z,2.39
2024-04-24T01:27:18.219Z,2.35
2024-04-24T01:32:20.990Z,2.29
2024-04-24T01:37:23.786Z,2.25
2024-04-24T01:42:26.449Z,2.26
2024-04-24T01:47:29.132Z,2.27
2024-04-24T01:52:31.729Z,2.31
2024-04-24T01:57:34.339Z,2.33
2024-04-24T02:02:37.079Z,2.32
2024-04-24T02:07:39.754Z,2.32
2024-04-24T02:12:42.436Z,2.29
2024-04-24T02:17:45.183Z,2.28
2024-04-24T02:22:47.913Z,2.26
2024-04-24T02:27:50.541Z,2.28
2024-04-24T02:32:53.815Z,2.35
2024-04-24T02:37:56.674Z,2.41
2024-04-24T02:42:59.383Z,2.46
2024-04-24T02:48:02.134Z,2.49
2024-04-24T02:53:04.873Z,2.49
2024-04-24T02:58:07.683Z,2.48
2024-04-24T03:03:10.506Z,2.47
2024-04-24T03:08:13.387Z,2.45
2024-04-24T03:13:16.160Z,2.44
2024-04-24T03:18:18.980Z,2.43
2024-04-24T03:23:21.753Z,2.45
2024-04-24T03:28:24.487Z,2.47
2024-04-24T03:33:27.248Z,2.51
2024-04-24T03:38:30.254Z,2.53
2024-04-24T03:43:32.825Z,2.57
2024-04-24T03:48:37.477Z,2.61
2024-04-24T03:53:41.377Z,2.68
2024-04-24T03:58:46.361Z,2.75
2024-04-24T04:03:53.676Z,2.83
2024-04-24T04:08:56.618Z,2.93
2024-04-24T04:13:59.286Z,3.08
2024-04-24T04:19:01.932Z,3.23
2024-04-24T04:24:04.641Z,3.39
2024-04-24T04:29:08.335Z,3.52
2024-04-24T04:34:11.346Z,3.58
2024-04-24T04:39:14.463Z,3.61
2024-04-24T04:44:17.189Z,3.62
2024-04-24T04:49:20.467Z,3.61
2024-04-24T04:54:23.083Z,3.60
2024-04-24T04:59:26.828Z,3.66
2024-04-24T05:04:29.541Z,3.75
2024-04-24T05:09:33.488Z,3.95
2024-04-24T05:14:36.271Z,4.23
2024-04-24T05:19:38.886Z,4.40
2024-04-24T05:24:41.545Z,4.59
2024-04-24T05:29:44.227Z,4.82
2024-04-24T05:34:46.868Z,4.98
2024-04-24T05:39:49.652Z,5.05
2024-04-24T05:44:52.272Z,5.10
2024-04-24T05:49:56.547Z,5.06
2024-04-24T05:54:59.352Z,5.00
2024-04-24T06:00:02.138Z,4.95
2024-04-24T06:05:05.469Z,5.03
2024-04-24T06:10:08.859Z,5.09
2024-04-24T06:15:18.647Z,5.14
2024-04-24T06:20:23.207Z,5.38
2024-04-24T06:25:25.873Z,5.90
2024-04-24T06:30:28.655Z,6.41
2024-04-24T06:35:37.239Z,6.90
2024-04-24T06:40:43.383Z,7.26
2024-04-24T06:45:46.716Z,7.61
2024-04-24T06:50:50.205Z,7.74
2024-04-24T06:55:53.580Z,7.89
2024-04-24T07:00:57.545Z,8.03
2024-04-24T07:06:00.440Z,8.12
2024-04-24T07:11:03.394Z,8.21
2024-04-24T07:16:06.528Z,8.14
2024-04-24T07:21:09.395Z,8.15
2024-04-24T07:26:12.073Z,8.28
2024-04-24T07:31:15.278Z,8.52
2024-04-24T07:36:18.745Z,8.57
2024-04-24T07:41:21.631Z,8.65
2024-04-24T07:46:30.917Z,8.96
2024-04-24T07:51:33.608Z,9.21
2024-04-24T07:56:36.358Z,9.44
2024-04-24T08:01:39.469Z,9.65
2024-04-24T08:06:42.525Z,9.76
2024-04-24T08:11:45.458Z,9.57
2024-04-24T08:16:49.934Z,9.64
2024-04-24T08:21:56.887Z,9.86
2024-04-24T08:26:59.619Z,9.83
2024-04-24T08:32:03.049Z,9.64
2024-04-24T08:37:05.852Z,9.69
2024-04-24T08:42:09.322Z,9.91
2024-04-24T08:47:14.228Z,10.17
2024-04-24T08:52:22.064Z,10.27
2024-04-24T08:57:27.704Z,10.33
2024-04-24T09:02:33.993Z,10.05
2024-04-24T09:07:39.972Z,10.07
2024-04-24T09:12:45.828Z,10.24
2024-04-24T09:17:50.839Z,10.40
2024-04-24T09:22:54.470Z,10.30
2024-04-24T09:27:57.736Z,10.38
2024-04-24T09:33:01.079Z,10.58
2024-04-24T09:38:06.903Z,10.81
2024-04-24T09:43:09.973Z,11.24
2024-04-24T09:48:24.567Z,11.88
2024-04-24T09:53:30.256Z,12.29
2024-04-24T09:58:35.951Z,12.48
2024-04-24T10:03:40.900Z,12.53
2024-04-24T10:08:45.027Z,12.48
2024-04-24T10:13:51.464Z,12.52
2024-04-24T10:18:56.467Z,12.52
2024-04-24T10:24:03.171Z,12.49
2024-04-24T10:29:13.120Z,12.45
2024-04-24T10:34:16.933Z,12.71
2024-04-24T10:39:20.661Z,12.68
2024-04-24T10:44:24.264Z,12.67
2024-04-24T10:49:30.442Z,12.69
2024-04-24T10:54:33.600Z,12.68
2024-04-24T10:59:44.268Z,12.85
2024-04-24T11:04:51.789Z,12.84
2024-04-24T11:09:55.253Z,12.85
2024-04-24T11:15:00.232Z,12.76
2024-04-24T11:20:04.335Z,12.68
2024-04-24T11:25:11.243Z,12.49
2024-04-24T11:30:18.971Z,12.30
2024-04-24T11:35:26.518Z,12.30
2024-04-24T11:40:38.223Z,12.16
2024-04-24T11:45:43.912Z,12.09
2024-04-24T11:50:55.178Z,11.96
2024-04-24T11:55:59.621Z,11.86
2024-04-24T12:01:03.211Z,11.68
2024-04-24T12:06:06.299Z,11.55
2024-04-24T12:11:09.849Z,11.38
2024-04-24T12:16:12.826Z,11.22
2024-04-24T12:21:17.131Z,11.18
2024-04-24T12:26:21.157Z,11.03
2024-04-24T12:31:25.103Z,10.94
2024-04-24T12:36:28.672Z,10.92
2024-04-24T12:41:31.782Z,10.99
2024-04-24T12:46:37.245Z,11.12
2024-04-24T12:51:41.533Z,11.13
2024-04-24T12:56:44.427Z,11.15
2024-04-24T13:01:47.049Z,11.24
2024-04-24T13:06:49.774Z,11.26
2024-04-24T13:11:52.648Z,11.32
2024-04-24T13:17:02.584Z,11.43
2024-04-24T13:22:06.631Z,11.81
2024-04-24T13:27:09.883Z,11.98
2024-04-24T13:32:12.648Z,11.94
2024-04-24T13:37:16.577Z,11.95
2024-04-24T13:42:19.536Z,12.08
2024-04-24T13:47:22.920Z,11.97
2024-04-24T13:52:25.686Z,11.63
2024-04-24T13:57:29.612Z,11.43
2024-04-24T14:02:35.266Z,11.29
2024-04-24T14:07:39.486Z,11.20
2024-04-24T14:12:43.055Z,11.10
2024-04-24T14:17:46.053Z,11.09
2024-04-24T14:22:49.518Z,11.22
2024-04-24T14:27:52.295Z,11.11
2024-04-24T14:32:55.417Z,10.98
2024-04-24T14:37:59.027Z,10.82
2024-04-24T14:43:01.704Z,10.58
2024-04-24T14:48:06.329Z,10.29
2024-04-24T14:53:09.039Z,10.03
2024-04-24T14:58:13.177Z,9.83
2024-04-24T15:03:18.432Z,9.69
2024-04-24T15:08:25.243Z,9.72
2024-04-24T15:13:28.412Z,9.75
2024-04-24T15:18:35.584Z,9.75
2024-04-24T15:23:38.360Z,9.64
2024-04-24T15:28:41.691Z,9.45
2024-04-24T15:33:44.580Z,9.30
2024-04-24T15:38:48.939Z,9.15
2024-04-24T15:43:51.891Z,9.08
2024-04-24T15:48:59.735Z,9.05
2024-04-24T15:54:03.206Z,8.92
2024-04-24T15:59:06.453Z,8.75
2024-04-24T16:04:09.786Z,8.68
2024-04-24T16:09:12.626Z,8.61
2024-04-24T16:14:17.006Z,8.54
2024-04-24T16:19:21.653Z,8.39
2024-04-24T16:24:24.408Z,8.26
2024-04-24T16:29:27.728Z,8.21
2024-04-24T16:34:31.617Z,8.17
2024-04-24T16:39:35.034Z,8.14
2024-04-24T16:44:37.694Z,8.04
2024-04-24T16:49:42.337Z,7.93
2024-04-24T16:54:46.836Z,7.86
2024-04-24T16:59:49.561Z,7.79
2024-04-24T17:04:53.549Z,7.79
2024-04-24T17:10:06.703Z,7.78
2024-04-24T17:15:13.627Z,7.75
2024-04-24T17:20:17.554Z,7.71
2024-04-24T17:25:20.707Z,7.66
2024-04-24T17:30:23.320Z,7.62
2024-04-24T17:35:26.609Z,7.57
2024-04-24T17:40:32.485Z,7.52
2024-04-24T17:45:35.171Z,7.45
2024-04-24T17:50:38.035Z,7.40
2024-04-24T17:55:40.869Z,7.32
2024-04-24T18:00:44.928Z,7.28
2024-04-24T18:05:48.163Z,7.23
2024-04-24T18:10:50.920Z,7.15
2024-04-24T18:15:54.213Z,7.05
2024-04-24T18:20:57.015Z,6.96
2024-04-24T18:25:59.946Z,6.95
2024-04-24T18:31:03.174Z,6.92
2024-04-24T18:36:07.339Z,6.86
2024-04-24T18:41:12.455Z,6.80
2024-04-24T18:46:16.763Z,6.78
2024-04-24T18:51:21.430Z,6.75
2024-04-24T18:56:24.707Z,6.69
2024-04-24T19:01:30.474Z,6.63
2024-04-24T19:06:35.989Z,6.64
2024-04-24T19:11:40.347Z,6.62
2024-04-24T19:16:43.302Z,6.57
2024-04-24T19:21:46.052Z,6.50
2024-04-24T19:26:48.952Z,6.45
2024-04-24T19:31:51.746Z,6.42
2024-04-24T19:36:54.781Z,6.38
2024-04-24T19:41:57.448Z,6.39
2024-04-24T19:47:00.290Z,6.39
2024-04-24T19:52:04.532Z,6.38
2024-04-24T19:57:07.281Z,6.38
2024-04-24T20:02:10.488Z,6.35
2024-04-24T20:07:15.757Z,6.32
2024-04-24T20:12:18.887Z,6.27
2024-04-24T20:17:22.663Z,6.27
2024-04-24T20:22:25.820Z,6.25
2024-04-24T20:27:28.651Z,6.22
2024-04-24T20:32:32.174Z,6.18
2024-04-24T20:37:34.955Z,6.15
2024-04-24T20:42:38.127Z,6.10
2024-04-24T20:47:40.915Z,6.08
2024-04-24T20:52:45.499Z,6.06
2024-04-24T20:57:48.193Z,6.06
2024-04-24T21:02:50.924Z,6.04
2024-04-24T21:07:55.704Z,6.01
2024-04-24T21:13:01.134Z,6.04
2024-04-24T21:18:04.353Z,6.05
2024-04-24T21:23:09.569Z,6.00
2024-04-24T21:28:14.482Z,5.99
2024-04-24T21:33:19.421Z,5.97
2024-04-24T21:38:22.158Z,5.97
2024-04-24T21:43:27.198Z,5.95
2024-04-24T21:48:29.881Z,5.89
2024-04-24T21:53:33.820Z,5.82
2024-04-24T21:58:36.891Z,5.73
2024-04-24T22:03:39.596Z,5.58
2024-04-24T22:08:42.335Z,5.44
2024-04-24T22:13:45.124Z,5.37
2024-04-24T22:18:48.245Z,5.35
2024-04-24T22:23:51.079Z,5.27
2024-04-24T22:28:53.699Z,5.14
2024-04-24T22:33:56.327Z,5.02
2024-04-24T22:38:58.952Z,4.91
2024-04-24T22:44:01.685Z,4.83
2024-04-24T22:49:08.515Z,4.78
2024-04-24T22:54:11.190Z,4.72
2024-04-24T22:59:17.669Z,4.59
2024-04-24T23:04:21.659Z,4.50
2024-04-24T23:09:24.368Z,4.44
2024-04-24T23:14:27.710Z,4.41
2024-04-24T23:19:30.333Z,4.37
2024-04-24T23:24:32.955Z,4.25
2024-04-24T23:29:35.706Z,4.12
2024-04-24T23:34:38.340Z,4.08
2024-04-24T23:39:41.376Z,4.08
2024-04-24T23:44:44.082Z,4.04
2024-04-24T23:49:46.731Z,3.96
2024-04-24T23:54:49.375Z,3.90
2024-04-24T23:59:52.676Z,3.92
